Airfield :
LOGIN :

Register | Disclaimer

   EN    FR    IT 

 










Legend :    VFR   Marginal VFR   IFR   Intensive IFR   Very Intensive IFR
Visi :
Ceiling :
>= 8 km
>= 3000ft
5 to 8 km
1000 to 3000 ft
1500m to 5 km
500 to 1000 ft
800 to 1500m
200 to 500 ft
< 800m
< 200 ft
Symbols :   Thunderstorms  Fog  Heavy snow  Heavy precipitations  Wind > 20 kt
SIGMETs :     Misc.  Thunderstorms  Icing  Turbulence  Mountain Waves  Volcanic Ashes







- Airport Elevation : 82 ft
- IATA code : QIE
- Download approach charts


LFMI - Istres

CURRENT METAR :
  • 231430Z AUTO 25013KT CAVOK 32/16 Q1016 NOSIG

EXPIRED METARs :
  • 231400Z AUTO 25013KT CAVOK 32/17 Q1016 NOSIG
  • 231330Z AUTO 28013KT 240V310 CAVOK 33/16 Q1017 NOSIG
  • 231300Z AUTO 28015KT CAVOK 33/16 Q1017 NOSIG
  • 231230Z AUTO 29013KT CAVOK 32/16 Q1017 NOSIG
  • 231200Z AUTO 29012KT 260V330 CAVOK 32/16 Q1018 NOSIG

TAF TAF LFMI
Valid from the 23 at 15:00 until the 24 at 15:00 UTC


231400Z 2315/2415 25015KT CAVOK
BECMG 2317/2319 31020KT
BECMG 2400/2402 35030KT
TEMPO 2402/2415 33032G42KT
PROB40
TEMPO 2408/2412 34036G50KT
No reported NOTAMs for that airfield.



MET'MAP, your aeronautical weather chart ! - Copyright ORBIFLY December 2007 - Disclaimer

ORBIFLY MET'MAP TEAM :

Programming & Development : Alexandra Zaïnal
Concept & Development : Baudouin d'Aumeries
Co-Development & Prog : Marc-Olivier Méhu
Technical & hardware support : Manuel Goepfert

Contact : metmap@orbifly.com




SOURCES & CREDITS :

   NOAA